Time;durP1;ratioP1;P1;durP2;ratioP2;P2;SDS_P1;SDS_P2;PMS_P1;PMS_P2;Temp;Humidity;BMP_temperature;BMP_pressure;BME280_temperature;BME280_humidity;BME280_pressure;Samples;Min_cycle;Max_cycle;Signal;HPM_P1;HPM_P2
2021/09/22 00:21:07;;;;;;;;;;;18.40;99.90;;;18.92;84.08;100558.69;5092105;28;19938;-61
2021/09/22 00:23:34;;;;;;;;;;;18.50;99.90;;;19.03;78.66;100557.00;5095263;28;19928;-60
2021/09/22 00:26:08;;;;;;;;;;;18.60;99.90;;;19.11;78.61;100549.78;4942472;28;10000542;-60
2021/09/22 00:28:36;;;;;;;;;;;18.70;99.90;;;19.19;77.44;100550.75;4556314;28;10000418;-62
2021/09/22 00:31:04;;;;;;;;;;;18.80;99.90;;;19.35;72.50;100546.84;5094593;28;19928;-61
2021/09/22 00:33:31;;;;;;;;;;;19.00;99.90;;;19.29;73.58;100552.97;5095148;28;19924;-62
2021/09/22 00:35:59;;;;;;;;;;;19.00;99.90;;;19.20;75.15;100544.91;5095358;28;20453;-61
2021/09/22 00:38:29;;;;;;;;;;;19.00;99.90;;;19.15;76.54;100541.66;5095361;28;20363;-62
2021/09/22 00:40:56;;;;;;;;;;;19.00;99.90;;;19.14;77.18;100542.78;5095283;28;20020;-62
2021/09/22 00:43:24;;;;;;;;;;;18.90;99.90;;;19.07;77.76;100540.66;5096936;28;19923;-63
2021/09/22 00:45:52;;;;;;;;;;;18.90;99.90;;;18.96;78.18;100547.81;5095067;28;19924;-63
2021/09/22 00:48:21;;;;;;;;;;;18.80;99.90;;;18.93;78.90;100543.06;5095331;28;20324;-62
2021/09/22 00:50:50;;;;;;;;;;;18.70;99.90;;;18.84;78.94;100543.22;5094560;28;19924;-62
2021/09/22 00:53:18;;;;;;;;;;;18.70;99.90;;;18.74;79.21;100535.50;5094393;28;19928;-63
2021/09/22 00:55:48;;;;;;;;;;;18.60;99.90;;;18.68;79.31;100528.69;5095329;28;19931;-62
2021/09/22 00:58:15;;;;;;;;;;;18.50;99.90;;;18.61;79.03;100522.22;5094903;28;20217;-63
2021/09/22 01:00:43;;;;;;;;;;;18.40;99.90;;;18.54;79.36;100520.88;5095951;28;19928;-62
2021/09/22 01:03:11;;;;;;;;;;;18.40;99.90;;;18.57;79.39;100516.69;5096075;28;20045;-63
2021/09/22 01:05:40;;;;;;;;;;;18.30;99.90;;;18.54;79.46;100515.41;5094631;28;19935;-63
2021/09/22 01:08:10;;;;;;;;;;;18.30;99.90;;;18.59;79.40;100517.09;5094661;28;19928;-61
2021/09/22 01:10:38;;;;;;;;;;;18.30;99.90;;;18.67;79.23;100515.34;5094490;28;20304;-60
2021/09/22 01:13:07;;;;;;;;;;;18.30;99.90;;;18.67;78.98;100516.13;5095416;28;19978;-61
2021/09/22 01:15:38;;;;;;;;;;;18.30;99.90;;;18.70;79.23;100511.91;5094194;28;19927;-60
2021/09/22 01:18:10;;;;;;;;;;;18.30;99.90;;;18.73;79.23;100509.25;5096746;28;19924;-62
2021/09/22 01:20:39;;;;;;;;;;;18.30;99.90;;;18.63;78.29;100514.47;5097198;28;19924;-61
2021/09/22 01:23:09;;;;;;;;;;;18.30;99.90;;;18.54;78.70;100515.41;5095955;28;19979;-61
2021/09/22 01:25:39;;;;;;;;;;;18.30;99.90;;;18.55;78.98;100508.78;5094143;28;19928;-62
2021/09/22 01:28:07;;;;;;;;;;;18.30;99.90;;;18.59;78.64;100505.34;5095418;28;19946;-62
2021/09/22 01:30:34;;;;;;;;;;;18.30;99.90;;;18.64;78.62;100511.38;5093013;28;20371;-62
2021/09/22 01:33:04;;;;;;;;;;;18.30;99.90;;;18.67;77.90;100504.38;5092971;28;19932;-61
2021/09/22 01:35:35;;;;;;;;;;;18.40;99.90;;;18.67;77.47;100507.13;5094082;28;20347;-63
2021/09/22 01:38:03;;;;;;;;;;;18.40;99.90;;;18.72;77.64;100504.94;5093744;28;20340;-62
2021/09/22 01:40:32;;;;;;;;;;;18.40;99.90;;;18.74;77.18;100494.44;5095292;28;19931;-63
2021/09/22 01:43:00;;;;;;;;;;;18.40;99.90;;;18.72;75.73;100502.22;5094023;28;19939;-62
2021/09/22 01:45:28;;;;;;;;;;;18.50;99.90;;;18.68;74.32;100498.56;5093882;28;19935;-62
2021/09/22 01:47:56;;;;;;;;;;;18.50;99.90;;;18.65;72.78;100493.78;5093894;28;20373;-62
2021/09/22 01:50:23;;;;;;;;;;;18.60;99.90;;;18.90;71.40;100494.44;5093861;28;20369;-62
2021/09/22 01:52:52;;;;;;;;;;;18.70;99.90;;;19.04;70.37;100481.09;5093669;28;19924;-62
2021/09/22 01:55:21;;;;;;;;;;;18.80;99.90;;;19.03;70.62;100484.97;5094028;28;20295;-62
2021/09/22 01:57:51;;;;;;;;;;;18.90;99.90;;;18.90;70.11;100481.53;5093254;28;19947;-62
2021/09/22 02:00:19;;;;;;;;;;;18.90;99.90;;;18.84;70.35;100480.22;5093781;28;20437;-62
2021/09/22 02:02:47;;;;;;;;;;;18.90;99.90;;;18.68;71.13;100476.66;5093480;28;19925;-62
2021/09/22 02:05:14;;;;;;;;;;;18.90;99.90;;;18.45;71.76;100470.94;5093531;28;19936;-62
2021/09/22 02:07:42;;;;;;;;;;;18.80;99.90;;;18.37;72.29;100469.16;5093086;28;19947;-61
2021/09/22 02:10:11;;;;;;;;;;;18.70;99.90;;;18.40;72.78;100467.66;5093221;28;19924;-61
2021/09/22 02:12:38;;;;;;;;;;;18.60;99.90;;;18.39;72.94;100461.38;5093437;28;19924;-62
2021/09/22 02:15:09;;;;;;;;;;;18.60;99.90;;;18.38;73.88;100454.34;5093556;28;19928;-61
2021/09/22 02:17:37;;;;;;;;;;;18.60;99.90;;;18.46;73.82;100458.84;5093168;28;19977;-62
2021/09/22 02:20:07;;;;;;;;;;;18.60;99.90;;;18.60;73.66;100454.94;5092853;28;19924;-61
2021/09/22 02:22:35;;;;;;;;;;;18.60;99.90;;;18.74;73.24;100453.34;5093492;28;19924;-62
2021/09/22 02:25:04;;;;;;;;;;;18.70;99.90;;;18.86;72.93;100442.28;5092650;28;19924;-61
2021/09/22 02:27:32;;;;;;;;;;;18.80;99.90;;;18.97;72.30;100446.06;5093102;28;19970;-62
2021/09/22 02:30:00;;;;;;;;;;;18.90;99.90;;;18.91;72.43;100444.75;5092701;28;19932;-62
2021/09/22 02:32:29;;;;;;;;;;;18.90;99.90;;;18.85;72.75;100450.84;5092838;28;19935;-62
2021/09/22 02:34:57;;;;;;;;;;;18.90;99.90;;;18.83;72.97;100455.91;5092546;28;19928;-62
2021/09/22 02:37:24;;;;;;;;;;;18.90;99.90;;;18.83;73.32;100447.69;5092724;28;19928;-61
2021/09/22 02:39:55;;;;;;;;;;;18.90;99.90;;;18.82;73.85;100457.84;5092613;28;19969;-62
2021/09/22 02:42:22;;;;;;;;;;;18.90;99.90;;;18.78;73.64;100446.00;5092794;28;19931;-62
2021/09/22 02:44:50;;;;;;;;;;;18.80;99.90;;;18.86;73.36;100456.00;5092591;28;20369;-62
2021/09/22 02:47:19;;;;;;;;;;;18.90;99.90;;;18.92;73.04;100446.34;5094310;28;19932;-62
2021/09/22 02:49:49;;;;;;;;;;;18.90;99.90;;;18.86;73.17;100449.72;5094607;28;19927;-62
2021/09/22 02:52:17;;;;;;;;;;;18.90;99.90;;;18.83;73.46;100447.69;5094128;28;20362;-62
2021/09/22 02:54:45;;;;;;;;;;;18.90;99.90;;;18.85;73.76;100450.84;5092700;28;19924;-62
2021/09/22 02:57:12;;;;;;;;;;;18.80;99.90;;;18.92;73.71;100456.50;5092942;28;19977;-61
2021/09/22 02:59:40;;;;;;;;;;;18.90;99.90;;;19.01;73.00;100446.16;5092644;28;19953;-62
2021/09/22 03:02:08;;;;;;;;;;;18.90;99.90;;;19.03;72.86;100441.91;5092859;28;19924;-62
2021/09/22 03:04:36;;;;;;;;;;;19.00;99.90;;;19.00;73.02;100442.63;5092536;28;19931;-62
2021/09/22 03:07:05;;;;;;;;;;;19.00;99.90;;;19.01;73.06;100438.75;5094310;28;19931;-62
2021/09/22 03:09:33;;;;;;;;;;;19.00;99.90;;;19.05;72.81;100438.84;5092753;28;19986;-62
2021/09/22 03:12:00;;;;;;;;;;;19.00;99.90;;;19.03;73.09;100441.91;5092576;28;19951;-62
2021/09/22 03:14:28;;;;;;;;;;;19.10;99.90;;;19.02;72.98;100443.09;5091791;28;20289;-62
2021/09/22 03:16:56;;;;;;;;;;;19.10;99.90;;;18.99;73.32;100443.00;5092746;28;19928;-62
2021/09/22 03:19:23;;;;;;;;;;;19.00;99.90;;;18.95;73.45;100444.84;5094388;28;19928;-62
2021/09/22 03:21:51;;;;;;;;;;;19.00;99.90;;;18.95;73.52;100436.63;5092395;28;20357;-62
2021/09/22 03:24:21;;;;;;;;;;;19.00;99.90;;;19.01;73.35;100437.94;5092609;28;19928;-62
2021/09/22 03:26:49;;;;;;;;;;;19.00;99.90;;;18.92;73.48;100431.84;5093306;28;19932;-62
2021/09/22 03:29:18;;;;;;;;;;;19.00;99.90;;;18.89;73.58;100435.31;5092409;28;19928;-62
2021/09/22 03:31:45;;;;;;;;;;;19.00;99.90;;;18.90;73.58;100439.66;5092692;28;19931;-62
2021/09/22 03:34:13;;;;;;;;;;;19.00;99.90;;;18.88;73.45;100450.94;5092452;28;19970;-62
2021/09/22 03:36:41;;;;;;;;;;;18.90;99.90;;;18.83;73.78;100447.69;5092951;28;19924;-63
2021/09/22 03:39:09;;;;;;;;;;;18.90;99.90;;;18.80;74.01;100446.44;5092405;28;19931;-62
2021/09/22 03:41:38;;;;;;;;;;;18.90;99.90;;;18.78;74.25;100450.69;5092267;28;20300;-62
2021/09/22 03:44:06;;;;;;;;;;;18.80;99.90;;;18.80;74.33;100451.94;5092176;28;20377;-62
2021/09/22 03:46:34;;;;;;;;;;;18.80;99.90;;;18.81;74.33;100450.00;5092325;28;19951;-62
2021/09/22 03:49:01;;;;;;;;;;;18.80;99.90;;;18.81;74.42;100444.50;5092253;28;19928;-61
2021/09/22 03:51:29;;;;;;;;;;;18.70;99.90;;;18.72;74.43;100446.63;5092274;28;19928;-62
2021/09/22 03:53:57;;;;;;;;;;;18.70;99.90;;;18.65;75.04;100441.75;5093179;28;19932;-62
2021/09/22 03:56:25;;;;;;;;;;;18.70;99.90;;;18.58;75.47;100443.50;5092345;28;19931;-62
2021/09/22 03:58:54;;;;;;;;;;;18.60;99.90;;;18.49;75.85;100449.97;5092217;28;20442;-62
2021/09/22 04:01:23;;;;;;;;;;;18.60;99.90;;;18.45;76.12;100451.75;5092933;28;19947;-62
2021/09/22 04:03:52;;;;;;;;;;;18.50;99.90;;;18.44;76.50;100446.66;5094040;28;19924;-61
2021/09/22 04:06:19;;;;;;;;;;;18.50;99.90;;;18.45;76.75;100446.28;5094047;28;19997;-61
2021/09/22 04:08:47;;;;;;;;;;;18.50;99.90;;;18.42;76.91;100457.94;5092368;28;19928;-61
2021/09/22 04:11:15;;;;;;;;;;;18.40;99.90;;;18.36;77.35;100462.09;5092657;28;19982;-61
2021/09/22 04:13:42;;;;;;;;;;;18.40;99.90;;;18.31;77.77;100453.34;5092720;28;19928;-62
2021/09/22 04:16:12;;;;;;;;;;;18.40;99.90;;;18.25;78.28;100458.28;5092898;28;20385;-62
2021/09/22 04:18:40;;;;;;;;;;;18.30;99.90;;;18.29;78.25;100455.63;5092076;28;19935;-63
2021/09/22 04:21:07;;;;;;;;;;;18.30;99.90;;;18.32;78.14;100455.75;5092147;28;19931;-63
2021/09/22 04:23:35;;;;;;;;;;;18.20;99.90;;;18.29;78.27;100456.44;5091956;28;19932;-63
2021/09/22 04:26:03;;;;;;;;;;;18.20;99.90;;;18.23;78.72;100448.81;5093372;28;19924;-63
2021/09/22 04:28:31;;;;;;;;;;;18.30;99.90;;;18.13;79.05;100458.31;5095782;28;19938;-61
2021/09/22 04:30:58;;;;;;;;;;;18.20;99.90;;;18.05;79.79;100447.53;5096766;28;19993;-60
2021/09/22 04:33:28;;;;;;;;;;;18.10;99.90;;;18.01;80.25;100448.22;5095974;28;19925;-62
2021/09/22 04:35:56;;;;;;;;;;;18.10;99.90;;;17.97;80.90;100452.00;5095522;28;19970;-61
2021/09/22 04:38:23;;;;;;;;;;;18.00;99.90;;;17.94;81.36;100455.44;5095562;28;19932;-61
2021/09/22 04:40:51;;;;;;;;;;;18.00;99.90;;;17.92;82.59;100457.72;5096465;28;19931;-63
2021/09/22 04:43:19;;;;;;;;;;;18.00;99.90;;;17.88;83.03;100452.16;5095565;28;19928;-63
2021/09/22 04:45:47;;;;;;;;;;;18.00;99.90;;;17.86;83.44;100453.66;5095266;28;19928;-62
2021/09/22 04:48:15;;;;;;;;;;;17.90;99.90;;;17.77;83.69;100451.06;5095473;28;19928;-62
2021/09/22 04:50:44;;;;;;;;;;;17.90;99.90;;;17.70;84.63;100450.84;5095663;28;19982;-62
2021/09/22 04:53:12;;;;;;;;;;;17.90;99.90;;;17.65;85.53;100450.28;5097395;28;19924;-62
2021/09/22 04:55:40;;;;;;;;;;;17.80;99.90;;;17.63;86.78;100450.63;5095145;28;19977;-62
2021/09/22 04:58:08;;;;;;;;;;;17.80;99.90;;;17.60;87.51;100451.31;5095257;28;19977;-62
2021/09/22 05:00:35;;;;;;;;;;;17.70;99.90;;;17.57;88.43;100441.06;5095026;28;20408;-62
2021/09/22 05:03:04;;;;;;;;;;;17.70;99.90;;;17.51;89.31;100445.16;5095140;28;19928;-62
2021/09/22 05:05:31;;;;;;;;;;;17.70;99.90;;;17.52;90.23;100443.22;5095069;28;19978;-63
2021/09/22 05:08:01;;;;;;;;;;;17.60;99.90;;;17.53;90.64;100445.63;5094972;28;19936;-63
2021/09/22 05:10:29;;;;;;;;;;;17.60;99.90;;;17.61;91.51;100446.63;5094916;28;20365;-63
2021/09/22 05:12:56;;;;;;;;;;;17.60;99.90;;;17.57;91.70;100443.78;5095223;28;19931;-62
2021/09/22 05:15:24;;;;;;;;;;;17.60;99.90;;;17.60;91.71;100443.09;5097472;28;19932;-62
2021/09/22 05:17:52;;;;;;;;;;;17.60;99.90;;;17.63;91.92;100439.69;5094944;28;20342;-63
2021/09/22 05:20:21;;;;;;;;;;;;;;;17.62;92.80;100434.56;5094729;28;19978;-62
2021/09/22 05:22:49;;;;;;;;;;;;;;;17.54;93.48;100432.75;5094765;28;20360;-62
2021/09/22 05:25:18;;;;;;;;;;;17.60;99.90;;;17.55;93.83;100443.34;5094598;28;19946;-62
2021/09/22 05:27:46;;;;;;;;;;;17.60;99.90;;;17.56;94.18;100450.44;5094624;28;19924;-62
2021/09/22 05:30:15;;;;;;;;;;;17.60;99.90;;;17.56;94.30;100442.22;5094541;28;19965;-63
2021/09/22 05:32:43;;;;;;;;;;;17.50;99.90;;;17.58;94.36;100442.66;5094564;28;20364;-62
2021/09/22 05:35:11;;;;;;;;;;;17.50;99.90;;;17.58;95.20;100458.28;5096858;28;20377;-62
2021/09/22 05:37:38;;;;;;;;;;;17.60;99.90;;;17.52;96.96;100462.34;5094073;28;20373;-62
2021/09/22 05:40:08;;;;;;;;;;;17.60;99.90;;;17.39;99.51;100467.84;5095411;28;19924;-62
2021/09/22 05:42:37;;;;;;;;;;;17.50;99.90;;;17.30;100.00;100456.22;5095485;28;19935;-62
2021/09/22 05:45:06;;;;;;;;;;;17.50;99.90;;;17.24;100.00;100457.59;5094119;28;19924;-63
2021/09/22 05:47:34;;;;;;;;;;;17.40;99.90;;;17.24;100.00;100462.25;5094313;28;19928;-63
2021/09/22 05:50:02;;;;;;;;;;;17.40;99.90;;;17.31;100.00;100467.97;5093974;28;19928;-62
2021/09/22 05:52:30;;;;;;;;;;;17.30;99.90;;;17.34;100.00;100464.53;5096283;28;20301;-63
2021/09/22 05:54:57;;;;;;;;;;;17.30;99.90;;;17.33;100.00;100471.13;5093952;28;19924;-62
2021/09/22 05:57:25;;;;;;;;;;;17.40;99.90;;;17.37;100.00;100470.13;5093851;28;19924;-62
2021/09/22 05:59:54;;;;;;;;;;;17.30;99.90;;;17.44;100.00;100475.03;5093965;28;19924;-61
2021/09/22 06:02:22;;;;;;;;;;;17.30;99.90;;;17.48;100.00;100475.91;5093901;28;19932;-62
2021/09/22 06:04:50;;;;;;;;;;;17.30;99.90;;;17.46;100.00;100480.94;5094033;28;19930;-62
2021/09/22 06:07:18;;;;;;;;;;;17.30;99.90;;;17.36;100.00;100482.19;5093733;28;19924;-62
2021/09/22 06:09:46;;;;;;;;;;;17.40;99.90;;;17.30;100.00;100477.28;5093968;28;19977;-62
2021/09/22 06:12:15;;;;;;;;;;;17.40;99.90;;;17.28;100.00;100488.59;5094254;28;20325;-62
2021/09/22 06:14:43;;;;;;;;;;;17.30;99.90;;;17.33;100.00;100498.47;5095226;28;19931;-62
2021/09/22 06:17:12;;;;;;;;;;;17.30;99.90;;;17.30;100.00;100493.69;5093754;28;20037;-62
2021/09/22 06:19:40;;;;;;;;;;;17.30;99.90;;;17.28;100.00;100494.03;5093584;28;19935;-62
2021/09/22 06:22:07;;;;;;;;;;;17.20;99.90;;;17.22;100.00;100492.69;5093435;28;19977;-62
2021/09/22 06:24:35;;;;;;;;;;;17.20;99.90;;;16.97;100.00;100503.91;5093364;28;20431;-62
2021/09/22 06:27:03;;;;;;;;;;;17.20;99.90;;;16.80;100.00;100505.75;5093745;28;20393;-62
2021/09/22 06:29:31;;;;;;;;;;;17.10;99.90;;;16.73;100.00;100508.22;5093981;28;20018;-62
2021/09/22 06:31:59;;;;;;;;;;;17.00;99.90;;;16.73;100.00;100510.16;5093163;28;20031;-62
2021/09/22 06:34:28;;;;;;;;;;;17.00;99.90;;;16.78;100.00;100512.66;5093271;28;19924;-63
2021/09/22 06:36:56;;;;;;;;;;;16.90;99.90;;;16.89;100.00;100511.91;5093622;28;19935;-62
2021/09/22 06:39:24;;;;;;;;;;;16.90;99.90;;;17.01;100.00;100513.84;5094722;28;20404;-62
2021/09/22 06:41:51;;;;;;;;;;;17.00;99.90;;;17.06;100.00;100513.59;5093130;28;19928;-62
2021/09/22 06:44:19;;;;;;;;;;;17.00;99.90;;;17.00;100.00;100506.78;5094576;28;20344;-62
2021/09/22 06:46:47;;;;;;;;;;;17.00;99.90;;;16.87;100.00;100508.69;5093134;28;19928;-63
2021/09/22 06:49:14;;;;;;;;;;;17.00;99.90;;;16.83;100.00;100512.44;5092890;28;19997;-62
2021/09/22 06:51:44;;;;;;;;;;;17.00;99.90;;;16.92;100.00;100519.41;5092863;28;20366;-62
2021/09/22 06:54:11;;;;;;;;;;;17.00;99.90;;;17.06;100.00;100521.81;5094237;28;19924;-62
2021/09/22 06:56:39;;;;;;;;;;;17.10;99.90;;;17.23;100.00;100518.06;5094206;28;19935;-61
2021/09/22 06:59:07;;;;;;;;;;;17.20;99.90;;;17.49;100.00;100513.03;5095800;28;19932;-62
2021/09/22 07:01:35;;;;;;;;;;;17.30;99.90;;;17.90;100.00;100526.44;5092826;28;19977;-62
2021/09/22 07:04:03;;;;;;;;;;;17.60;99.90;;;18.59;100.00;100514.38;5094178;28;20051;-62
2021/09/22 07:06:30;;;;;;;;;;;17.90;99.90;;;19.61;100.00;100519.69;5092710;28;19970;-63
2021/09/22 07:09:00;;;;;;;;;;;18.50;99.90;;;20.08;100.00;100519.53;5092773;28;19973;-62
2021/09/22 07:11:27;;;;;;;;;;;19.00;99.90;;;19.95;100.00;100522.78;5092683;28;20296;-62
2021/09/22 07:13:55;;;;;;;;;;;19.40;99.90;;;19.90;100.00;100520.31;5092580;28;19928;-61
2021/09/22 07:16:23;;;;;;;;;;;19.50;99.90;;;21.28;100.00;100520.25;5093075;28;20281;-61
2021/09/22 07:18:51;;;;;;;;;;;20.00;99.90;;;22.53;100.00;100510.53;5094045;28;19928;-60
2021/09/22 07:21:18;;;;;;;;;;;20.70;99.90;;;23.47;100.00;100512.59;5094087;28;19935;-63
2021/09/22 07:23:46;;;;;;;;;;;21.60;99.90;;;24.00;100.00;100512.13;5092568;28;20370;-60
2021/09/22 07:26:15;;;;;;;;;;;22.30;99.90;;;23.73;100.00;100520.69;5092463;28;20029;-61
2021/09/22 07:28:44;;;;;;;;;;;22.90;99.90;;;23.02;100.00;100521.28;5092555;28;19924;-63
2021/09/22 07:31:12;;;;;;;;;;;23.30;99.90;;;22.61;100.00;100526.78;5092301;28;19924;-61
2021/09/22 07:33:39;;;;;;;;;;;23.50;99.90;;;22.23;100.00;100516.09;5092413;28;19928;-61
2021/09/22 07:36:07;;;;;;;;;;;23.30;99.90;;;22.24;100.00;100518.50;5093776;28;19927;-63
2021/09/22 07:38:35;;;;;;;;;;;23.10;99.90;;;22.13;100.00;100520.31;5092611;28;19928;-63
2021/09/22 07:41:03;;;;;;;;;;;22.90;99.90;;;21.88;100.00;100527.47;5092065;28;19928;-62
2021/09/22 07:43:32;;;;;;;;;;;22.70;99.90;;;21.90;100.00;100516.88;5092345;28;19931;-62
2021/09/22 07:46:01;;;;;;;;;;;22.50;99.90;;;22.08;100.00;100519.84;5092004;28;20372;-62
2021/09/22 07:48:29;;;;;;;;;;;22.40;99.90;;;22.31;100.00;100518.56;5092273;28;20019;-61
2021/09/22 07:50:57;;;;;;;;;;;22.50;99.90;;;22.59;100.00;100520.84;5092117;28;19928;-62
2021/09/22 07:53:24;;;;;;;;;;;22.60;99.90;;;22.94;100.00;100516.88;5092126;28;20373;-63
2021/09/22 07:55:52;;;;;;;;;;;22.80;99.90;;;23.29;100.00;100520.72;5092531;28;19924;-62
2021/09/22 07:58:20;;;;;;;;;;;23.10;99.90;;;23.31;100.00;100517.59;5092103;28;20308;-63
2021/09/22 08:00:49;;;;;;;;;;;23.30;99.90;;;23.34;100.00;100523.16;5093538;28;19928;-63
2021/09/22 08:03:17;;;;;;;;;;;23.40;99.90;;;23.55;100.00;100524.50;5096145;28;19935;-63
2021/09/22 08:05:45;;;;;;;;;;;23.60;99.90;;;23.57;100.00;100516.63;5096004;28;19981;-63
2021/09/22 08:08:12;;;;;;;;;;;23.70;99.90;;;23.60;100.00;100527.69;5096125;28;19930;-63
2021/09/22 08:10:41;;;;;;;;;;;23.80;99.90;;;23.82;100.00;100528.63;5096030;28;19928;-63
2021/09/22 08:13:09;;;;;;;;;;;23.90;99.90;;;24.02;100.00;100515.28;5096108;28;19928;-63
2021/09/22 08:15:38;;;;;;;;;;;24.00;99.90;;;24.19;100.00;100515.41;5095858;28;19924;-63
2021/09/22 08:18:07;;;;;;;;;;;24.20;99.90;;;24.48;100.00;100517.09;5096395;28;19931;-63
2021/09/22 08:20:36;;;;;;;;;;;24.40;99.90;;;24.77;100.00;100517.94;5095678;28;19924;-63
2021/09/22 08:23:04;;;;;;;;;;;24.60;99.90;;;25.04;100.00;100515.63;5095780;28;19928;-63
2021/09/22 08:25:32;;;;;;;;;;;24.80;99.90;;;25.27;100.00;100523.53;5095689;28;19931;-63
2021/09/22 08:28:00;;;;;;;;;;;25.10;99.90;;;25.29;100.00;100527.47;5096322;28;19981;-63
2021/09/22 08:30:28;;;;;;;;;;;25.30;99.90;;;25.51;100.00;100526.31;5096465;28;20384;-63
2021/09/22 08:32:56;;;;;;;;;;;25.50;99.90;;;25.68;100.00;100519.16;5095903;28;19928;-63
2021/09/22 08:35:25;;;;;;;;;;;25.60;99.90;;;25.84;100.00;100522.28;5095710;28;19932;-63
2021/09/22 08:37:53;;;;;;;;;;;25.80;99.90;;;26.02;100.00;100523.00;5095717;28;19924;-63
2021/09/22 08:40:21;;;;;;;;;;;25.90;99.90;;;26.14;100.00;100532.09;5095530;28;19928;-63
2021/09/22 08:42:49;;;;;;;;;;;26.00;99.90;;;26.18;100.00;100528.13;5096499;28;19924;-63
2021/09/22 08:45:16;;;;;;;;;;;26.10;99.90;;;26.22;100.00;100526.13;5095287;28;19931;-63
2021/09/22 08:47:44;;;;;;;;;;;26.20;99.90;;;26.25;100.00;100530.88;5096339;28;19924;-63
2021/09/22 08:50:14;;;;;;;;;;;26.30;99.90;;;26.30;100.00;100532.44;5095811;28;19927;-63
2021/09/22 08:52:44;;;;;;;;;;;26.40;99.90;;;26.26;100.00;100529.69;5095202;28;19931;-63
2021/09/22 08:55:12;;;;;;;;;;;26.40;99.90;;;26.23;100.00;100533.28;5095212;28;20029;-63
2021/09/22 08:57:40;;;;;;;;;;;26.40;99.90;;;26.34;100.00;100535.97;5095794;28;19981;-63
2021/09/22 09:00:10;;;;;;;;;;;26.50;99.90;;;26.43;100.00;100545.44;5095289;28;19924;-63
2021/09/22 09:02:39;;;;;;;;;;;26.50;99.90;;;26.46;100.00;100544.63;5095576;28;20420;-63
2021/09/22 09:05:09;;;;;;;;;;;26.60;99.90;;;26.58;100.00;100546.94;5094974;28;19927;-63
2021/09/22 09:07:49;;;;;;;;;;;26.70;99.90;;;26.75;100.00;100538.94;5095064;28;19935;-63
2021/09/22 09:10:18;;;;;;;;;;;26.80;99.90;;;26.80;100.00;100542.09;5095370;28;19924;-63
2021/09/22 09:12:46;;;;;;;;;;;26.90;99.90;;;26.86;100.00;100557.13;5094132;28;19931;-63
2021/09/22 09:15:15;;;;;;;;;;;26.90;99.90;;;26.89;100.00;100552.75;5094058;28;20381;-63
2021/09/22 09:17:45;;;;;;;;;;;26.90;99.90;;;26.91;100.00;100551.13;5094715;28;19928;-63
2021/09/22 09:20:24;;;;;;;;;;;27.00;99.90;;;27.05;100.00;100555.81;5094731;28;19924;-63
2021/09/22 09:23:12;;;;;;;;;;;27.10;99.90;;;27.19;100.00;100549.34;5094546;28;19928;-63
2021/09/22 09:25:42;;;;;;;;;;;27.20;99.90;;;27.06;100.00;100551.81;5093834;28;19935;-63
2021/09/22 09:28:18;;;;;;;;;;;27.30;99.90;;;27.12;100.00;100550.19;5095454;28;20401;-63
2021/09/22 09:30:47;;;;;;;;;;;27.30;99.90;;;27.29;100.00;100551.25;5094409;28;19924;-63
2021/09/22 09:33:37;;;;;;;;;;;27.40;99.90;;;27.58;100.00;100552.59;5094422;28;19935;-63
2021/09/22 09:36:16;;;;;;;;;;;27.50;99.90;;;27.71;100.00;100556.44;5094324;28;19981;-63
2021/09/22 09:38:49;;;;;;;;;;;27.70;99.90;;;27.78;100.00;100550.81;5094378;28;19928;-63
2021/09/22 09:41:35;;;;;;;;;;;27.80;99.90;;;27.81;100.00;100550.00;5094200;28;20014;-63
2021/09/22 09:44:04;;;;;;;;;;;27.90;99.90;;;27.82;100.00;100546.00;5094234;28;20370;-63
2021/09/22 09:46:33;;;;;;;;;;;28.00;99.90;;;27.85;100.00;100550.72;5095199;28;19928;-63
2021/09/22 09:49:04;;;;;;;;;;;28.00;99.90;;;27.86;100.00;100549.53;5094173;28;19924;-63
2021/09/22 09:51:50;;;;;;;;;;;28.00;99.90;;;27.91;100.00;100557.41;5094050;28;20266;-63
2021/09/22 09:54:21;;;;;;;;;;;28.00;99.90;;;27.91;97.60;100560.19;5094026;28;19928;-63
2021/09/22 09:56:50;;;;;;;;;;;27.90;99.90;;;27.92;100.00;100549.88;5094265;28;19932;-63
2021/09/22 09:59:19;;;;;;;;;;;27.90;99.90;;;27.82;100.00;100551.56;5093992;28;19928;-63
2021/09/22 10:01:49;;;;;;;;;;;28.00;99.90;;;27.77;100.00;100549.25;5093856;28;19927;-63
2021/09/22 10:04:18;;;;;;;;;;;28.00;99.90;;;27.83;99.27;100541.25;5096380;28;19927;-63
2021/09/22 10:06:47;;;;;;;;;;;27.90;99.90;;;27.90;100.00;100555.06;5097415;28;20018;-63
2021/09/22 10:09:16;;;;;;;;;;;28.00;99.90;;;27.95;100.00;100549.84;5093695;28;19928;-63
2021/09/22 10:11:46;;;;;;;;;;;28.10;99.90;;;28.02;100.00;100554.53;5093960;28;19931;-63
2021/09/22 10:14:15;;;;;;;;;;;28.10;99.90;;;28.04;100.00;100561.28;5093766;28;20412;-63
2021/09/22 10:16:44;;;;;;;;;;;28.20;99.90;;;28.03;99.36;100556.09;5093579;28;20010;-63
2021/09/22 10:19:12;;;;;;;;;;;28.20;99.90;;;28.02;98.93;100560.09;5094965;28;19924;-63
2021/09/22 10:21:40;;;;;;;;;;;28.30;99.90;;;27.97;98.40;100560.53;5094498;28;19928;-63
2021/09/22 10:24:10;;;;;;;;;;;28.30;99.90;;;27.99;98.58;100550.59;5093083;28;19931;-64
2021/09/22 10:26:38;;;;;;;;;;;28.30;99.90;;;28.08;97.78;100556.47;5093227;28;19924;-63
2021/09/22 10:29:25;;;;;;;;;;;28.30;99.90;;;28.20;97.70;100555.16;5093544;28;19978;-63
2021/09/22 10:31:53;;;;;;;;;;;28.40;99.90;;;28.28;97.15;100555.81;5093420;28;19924;-64
2021/09/22 10:34:33;;;;;;;;;;;28.50;99.90;;;28.00;97.47;100563.28;5093085;28;20466;-63
2021/09/22 10:37:03;;;;;;;;;;;28.40;99.90;;;27.59;97.84;100554.19;5093289;28;20262;-63
2021/09/22 10:39:45;;;;;;;;;;;28.20;99.90;;;27.16;98.82;100553.72;5094429;28;19950;-63
2021/09/22 10:42:30;;;;;;;;;;;27.90;99.90;;;27.36;99.30;100560.31;5091392;28;19931;-63
2021/09/22 10:45:18;;;;;;;;;;;27.80;99.90;;;27.76;98.90;100552.41;5093056;28;19974;-63
2021/09/22 10:47:47;;;;;;;;;;;27.90;99.90;;;28.01;98.38;100550.16;5093079;28;19931;-63
2021/09/22 10:50:45;;;;;;;;;;;28.00;99.90;;;28.20;97.63;100553.16;5093057;28;19928;-63
2021/09/22 10:53:37;;;;;;;;;;;28.20;99.90;;;28.20;95.56;100544.03;5092980;28;19931;-63
2021/09/22 10:56:07;;;;;;;;;;;28.30;99.90;;;28.20;96.65;100542.03;5093270;28;19947;-63
2021/09/22 10:58:40;;;;;;;;;;;28.40;99.90;;;28.32;96.15;100545.47;5095487;28;19924;-63
2021/09/22 11:01:10;;;;;;;;;;;28.50;99.90;;;28.47;95.94;100541.28;5092871;28;19924;-63
2021/09/22 11:03:56;;;;;;;;;;;28.60;99.90;;;28.50;95.09;100532.91;5092031;28;20214;-63
2021/09/22 11:06:55;;;;;;;;;;;28.70;99.90;;;28.55;94.94;100537.19;5092580;28;19955;-63
2021/09/22 11:09:32;;;;;;;;;;;28.80;99.90;;;28.56;94.09;100538.78;5010676;28;19962;-63
2021/09/22 11:12:13;;;;;;;;;;;28.80;99.90;;;28.55;93.81;100531.63;5079590;28;19932;-63
2021/09/22 11:14:46;;;;;;;;;;;28.90;99.90;;;28.45;92.88;100530.59;5092604;28;19924;-63
2021/09/22 11:17:18;;;;;;;;;;;28.80;99.90;;;28.51;93.45;100534.47;5093187;28;19928;-63
2021/09/22 11:19:47;;;;;;;;;;;28.80;99.90;;;28.59;93.38;100524.03;5092927;28;19924;-63
2021/09/22 11:22:17;;;;;;;;;;;28.90;99.90;;;28.47;92.59;100516.25;5092440;28;19928;-63
2021/09/22 11:24:47;;;;;;;;;;;28.80;99.90;;;28.33;92.36;100519.25;5092374;28;19928;-63
2021/09/22 11:27:16;;;;;;;;;;;28.70;99.90;;;28.35;92.90;100511.25;5092468;28;20376;-63
2021/09/22 11:29:48;;;;;;;;;;;28.70;99.90;;;28.38;92.97;100514.00;5092308;28;19950;-63
2021/09/22 11:32:29;;;;;;;;;;;28.70;99.90;;;28.45;92.26;100515.91;5093951;28;19931;-64
2021/09/22 11:34:58;;;;;;;;;;;28.70;99.90;;;28.45;91.41;100516.69;5092159;28;19928;-63
2021/09/22 11:37:30;;;;;;;;;;;28.70;99.90;;;28.36;91.84;100507.28;5092492;28;19947;-63